Time;durP1;ratioP1;P1;durP2;ratioP2;P2;SDS_P1;SDS_P2;PMS_P1;PMS_P2;Temp;Humidity;BMP_temperature;BMP_pressure;BME280_temperature;BME280_humidity;BME280_pressure;Samples;Min_cycle;Max_cycle;Signal;HPM_P1;HPM_P2
2023/11/28 06:59:22;;;;;;;1.60;1.20;;;;;;;;;;5672186;23;20047;-81
2023/11/28 07:02:29;;;;;;;1.85;1.10;;;4.10;99.90;;;;;;4962530;28;20528;-82
2023/11/28 07:05:36;;;;;;;2.63;1.08;;;;;;;;;;4938106;29;20050;-82
2023/11/28 07:08:03;;;;;;;1.65;1.13;;;;;;;;;;4923143;29;20506;-80
2023/11/28 07:10:33;;;;;;;2.20;1.15;;;;;;;;;;4941291;29;20028;-81
2023/11/28 07:13:00;;;;;;;1.42;0.90;;;;;;;;;;4941070;29;20034;-79
2023/11/28 07:15:29;;;;;;;2.35;0.90;;;;;;;;;;4937529;29;20039;-80
2023/11/28 07:18:00;;;;;;;2.08;1.23;;;;;;;;;;4940065;29;20098;-79
2023/11/28 07:20:28;;;;;;;4.22;1.15;;;;;;;;;;4939730;29;20070;-81
2023/11/28 07:23:13;;;;;;;1.73;1.02;;;;;;;;;;4941302;29;20482;-79
2023/11/28 07:25:45;;;;;;;1.95;1.40;;;;;;;;;;4950908;28;20043;-81
2023/11/28 07:28:12;;;;;;;3.53;1.67;;;;;;;;;;4938306;29;20028;-79
2023/11/28 07:30:38;;;;;;;1.63;1.17;;;;;;;;;;4940838;29;20032;-78
2023/11/28 07:33:04;;;;;;;1.50;1.10;;;;;;;;;;4946449;28;20386;-80
2023/11/28 07:35:31;;;;;;;1.80;1.10;;;;;;;;;;4943552;28;20512;-79
2023/11/28 07:38:03;;;;;;;3.65;1.40;;;;;;;;;;4939034;29;20055;-80
2023/11/28 07:40:30;;;;;;;1.98;1.30;;;;;;;;;;4940318;29;20035;-79
2023/11/28 07:42:57;;;;;;;10.45;5.85;;;;;;;;;;4941739;29;20035;-77
2023/11/28 07:45:29;;;;;;;2.25;1.70;;;;;;;;;;4940473;29;20051;-80
2023/11/28 07:47:56;;;;;;;2.10;1.35;;;;;;;;;;4944596;29;20043;-80
2023/11/28 07:50:22;;;;;;;1.45;1.10;;;;;;;;;;4939030;29;20032;-81
2023/11/28 07:53:06;;;;;;;1.55;1.20;;;;;;;;;;4937245;29;20024;-79
2023/11/28 07:55:48;;;;;;;1.48;1.27;;;4.10;99.90;;;;;;4931286;29;20055;-80
2023/11/28 07:58:33;;;;;;;2.15;1.40;;;;;;;;;;4937780;29;20062;-79
2023/11/28 08:01:05;;;;;;;3.28;1.63;;;;;;;;;;4944218;29;20091;-80
2023/11/28 08:03:39;;;;;;;3.22;1.50;;;;;;;;;;4946455;28;20032;-79
2023/11/28 08:06:12;;;;;;;2.03;1.40;;;;;;;;;;4952211;29;20023;-81
2023/11/28 08:08:43;;;;;;;1.75;1.42;;;;;;;;;;4946917;29;20087;-81
2023/11/28 08:11:17;;;;;;;2.00;1.50;;;;;;;;;;4940583;29;20076;-79
2023/11/28 08:14:02;;;;;;;2.42;1.60;;;;;;;;;;4938914;29;20044;-80
2023/11/28 08:16:34;;;;;;;2.83;1.80;;;;;;;;;;4935901;29;20034;-80
2023/11/28 08:19:01;;;;;;;2.88;1.88;;;;;;;;;;4949044;28;20031;-80
2023/11/28 08:21:34;;;;;;;2.30;1.90;;;;;;;;;;4942342;29;20051;-80
2023/11/28 08:24:00;;;;;;;2.60;2.05;;;;;;;;;;4958276;28;20106;-79
2023/11/28 08:26:32;;;;;;;2.50;1.83;;;;;;;;;;4960586;28;20036;-79
2023/11/28 08:28:59;;;;;;;3.08;2.22;;;;;;;;;;4949469;29;20035;-80
2023/11/28 08:31:32;;;;;;;2.97;2.28;;;;;;;;;;4953120;29;20078;-80
2023/11/28 08:34:01;;;;;;;2.30;1.85;;;;;;;;;;4942300;29;20055;-81
2023/11/28 08:36:30;;;;;;;2.50;1.90;;;4.00;99.90;;;;;;4946999;29;20020;-80
2023/11/28 08:39:16;;;;;;;2.40;2.10;;;;;;;;;;4957384;29;20092;-80
2023/11/28 08:41:55;;;;;;;2.95;2.40;;;;;;;;;;4971674;29;20008;-80
2023/11/28 08:44:42;;;;;;;3.67;2.55;;;;;;;;;;4968655;28;20036;-80
2023/11/28 08:47:12;;;;;;;3.17;2.40;;;;;;;;;;4967365;29;20063;-81
2023/11/28 08:49:38;;;;;;;4.25;2.60;;;;;;;;;;4968959;29;20038;-80
2023/11/28 08:52:06;;;;;;;3.28;2.55;;;;;;;;;;4960768;28;20113;-79
2023/11/28 08:54:33;;;;;;;2.58;2.20;;;;;;;;;;4956599;28;20031;-81
2023/11/28 08:57:18;;;;;;;2.53;2.20;;;;;;;;;;4959199;28;20062;-80
2023/11/28 08:59:47;;;;;;;3.03;2.33;;;;;;;;;;4959213;29;20088;-79
2023/11/28 09:02:13;;;;;;;2.95;2.60;;;;;;;;;;4958171;28;20035;-80
2023/11/28 09:04:40;;;;;;;3.13;2.45;;;;;;;;;;4947225;28;20036;-79
2023/11/28 09:07:14;;;;;;;3.65;2.22;;;4.10;99.90;;;;;;4939228;29;20461;-78
2023/11/28 09:09:54;;;;;;;2.78;2.15;;;;;;;;;;4942170;29;20043;-80
2023/11/28 09:12:21;;;;;;;2.58;2.33;;;;;;;;;;4941476;29;20027;-80
2023/11/28 09:14:51;;;;;;;2.83;2.38;;;;;;;;;;4942270;29;20030;-80
2023/11/28 09:17:17;;;;;;;2.67;2.22;;;;;;;;;;4958710;28;20040;-80
2023/11/28 09:19:52;;;;;;;4.50;2.42;;;;;;;;;;4942837;29;20036;-80
2023/11/28 09:22:20;;;;;;;3.20;2.40;;;;;;;;;;4939062;29;20035;-80
2023/11/28 09:24:46;;;;;;;3.88;2.72;;;;;;;;;;4943362;29;20084;-80
2023/11/28 09:27:12;;;;;;;3.55;2.72;;;;;;;;;;4937797;29;20032;-79
2023/11/28 09:29:58;;;;;;;3.00;2.42;;;4.00;99.90;;;;;;4946173;29;20032;-79
2023/11/28 09:32:42;;;;;;;3.40;2.60;;;;;;;;;;4946658;28;20047;-80
2023/11/28 09:35:24;;;;;;;3.38;2.90;;;;;;;;;;4944753;28;20043;-80
2023/11/28 09:38:11;;;;;;;3.67;2.80;;;4.00;99.90;;;;;;4937999;29;20032;-80
2023/11/28 09:41:03;;;;;;;3.45;2.13;;;;;;;;;;4941038;29;20028;-80
2023/11/28 09:43:38;;;;;;;3.28;2.30;;;4.00;99.90;;;;;;4924447;29;20046;-79
2023/11/28 09:46:07;;;;;;;3.95;2.60;;;4.10;99.90;;;;;;4942651;28;20052;-78
2023/11/28 09:48:39;;;;;;;2.53;2.15;;;4.10;99.90;;;;;;4954009;28;20486;-81
2023/11/28 09:51:05;;;;;;;9.65;2.53;;;;;;;;;;4954184;28;20032;-79
2023/11/28 09:53:40;;;;;;;3.88;2.55;;;4.10;99.90;;;;;;4939310;29;20496;-80
2023/11/28 09:56:28;;;;;;;3.78;2.92;;;4.00;99.90;;;;;;4925151;29;20036;-81
2023/11/28 09:58:59;;;;;;;4.85;2.67;;;;;;;;;;4928180;29;20627;-79
2023/11/28 10:01:25;;;;;;;3.58;2.80;;;;;;;;;;4954724;28;20509;-79
2023/11/28 10:04:21;;;;;;;5.65;3.83;;;4.20;99.90;;;;;;4938155;29;20042;-80
2023/11/28 10:06:52;;;;;;;4.10;3.08;;;;;;;;;;4944607;29;20126;-81
2023/11/28 10:09:21;;;;;;;5.78;2.50;;;;;;;;;;4978422;28;20026;-81
2023/11/28 10:12:31;;;;;;;3.63;2.63;;;4.40;99.90;;;;;;4961669;29;20067;-82
2023/11/28 10:18:13;;;;;;;3.08;2.50;;;;;;;;;;4959807;29;19913;-82
2023/11/28 10:21:17;;;;;;;3.22;2.30;;;;;;;;;;4953130;29;20035;-82
2023/11/28 10:24:40;;;;;;;3.45;2.80;;;4.40;99.90;;;;;;4953708;28;20027;-82
2023/11/28 10:31:12;;;;;;;3.90;2.78;;;4.50;99.90;;;;;;4952317;29;20379;-81
2023/11/28 10:33:53;;;;;;;3.97;2.80;;;;;;;;;;4962473;28;20474;-80
2023/11/28 10:43:51;;;;;;;5.18;2.92;;;4.60;99.90;;;;;;4971218;28;20080;-81
2023/11/28 10:47:23;;;;;;;3.80;3.03;;;4.50;99.90;;;;;;4983376;28;20127;-81
2023/11/28 10:50:46;;;;;;;4.22;3.08;;;4.40;99.90;;;;;;4969359;29;20524;-82
2023/11/28 10:53:13;;;;;;;4.05;2.95;;;4.50;99.90;;;;;;4941194;23;21234;-79
2023/11/28 10:55:52;;;;;;;3.85;2.80;;;4.50;99.90;;;;;;4950353;28;20518;-79
2023/11/28 10:58:20;;;;;;;5.65;3.55;;;4.50;99.90;;;;;;4948829;28;20047;-79
2023/11/28 11:00:54;;;;;;;5.13;3.50;;;;;;;;;;4952832;28;20077;-80
2023/11/28 11:03:27;;;;;;;4.32;3.15;;;4.50;99.90;;;;;;4970942;28;20026;-79
2023/11/28 11:05:55;;;;;;;4.97;3.60;;;4.60;99.90;;;;;;4972640;28;20046;-81
2023/11/28 11:08:22;;;;;;;4.28;3.58;;;;;;;;;;4984802;28;20034;-80
2023/11/28 11:10:49;;;;;;;4.70;3.67;;;4.70;99.90;;;;;;4976115;28;20016;-79
2023/11/28 11:13:20;;;;;;;4.18;3.10;;;;;;;;;;4974834;28;20047;-79
2023/11/28 11:16:05;;;;;;;4.20;3.22;;;;;;;;;;4955545;28;20552;-79
2023/11/28 11:18:43;;;;;;;5.20;3.30;;;4.80;99.90;;;;;;4957196;28;20031;-79
2023/11/28 11:21:28;;;;;;;4.07;3.17;;;4.70;99.90;;;;;;4959432;28;20035;-81
2023/11/28 11:23:57;;;;;;;6.70;3.88;;;4.50;99.90;;;;;;4951688;28;20081;-80
2023/11/28 11:27:05;;;;;;;4.97;3.63;;;4.70;99.90;;;;;;4951749;28;20039;-80
2023/11/28 11:29:38;;;;;;;5.15;4.15;;;4.60;99.90;;;;;;4942549;28;20067;-81
2023/11/28 11:32:10;;;;;;;3.88;3.17;;;4.60;99.90;;;;;;4946125;28;20032;-80
2023/11/28 11:34:37;;;;;;;4.28;3.30;;;;;;;;;;4944495;28;20027;-80
2023/11/28 11:37:30;;;;;;;5.00;3.47;;;4.60;99.90;;;;;;4946517;28;20050;-81
2023/11/28 11:40:01;;;;;;;5.80;3.35;;;4.60;99.90;;;;;;4947263;28;20646;-80
2023/11/28 11:42:34;;;;;;;5.95;3.40;;;4.70;99.90;;;;;;4946307;28;20034;-81
2023/11/28 11:45:03;;;;;;;5.22;3.72;;;4.70;99.90;;;;;;4948546;28;20042;-80
2023/11/28 11:47:32;;;;;;;4.78;3.38;;;4.70;99.90;;;;;;4949884;28;20035;-80
2023/11/28 11:50:00;;;;;;;4.80;3.20;;;4.70;99.90;;;;;;4944915;28;20082;-80
2023/11/28 11:52:31;;;;;;;6.57;2.60;;;;;;;;;;4940389;28;20404;-80
2023/11/28 11:55:14;;;;;;;4.53;2.57;;;4.80;99.90;;;;;;4943269;28;20028;-80
2023/11/28 11:57:45;;;;;;;3.20;2.55;;;;;;;;;;4957794;28;20291;-79
2023/11/28 12:00:18;;;;;;;5.03;3.20;;;4.70;99.90;;;;;;4977186;28;20085;-81
2023/11/28 12:02:49;;;;;;;6.35;3.80;;;4.70;99.90;;;;;;4958342;28;20291;-80
2023/11/28 12:05:15;;;;;;;4.10;3.03;;;;;;;;;;4954528;29;20039;-80
2023/11/28 12:07:46;;;;;;;3.80;2.80;;;;;;;;;;4955304;28;20035;-80
2023/11/28 12:10:12;;;;;;;4.03;2.70;;;;;;;;;;4957729;28;20108;-79
2023/11/28 12:12:43;;;;;;;5.10;3.20;;;4.50;99.90;;;;;;4975063;28;20067;-80
2023/11/28 12:15:10;;;;;;;7.80;3.97;;;;;;;;;;4957450;28;20018;-81
2023/11/28 12:17:39;;;;;;;4.43;3.10;;;;;;;;;;4968420;28;20498;-78
2023/11/28 12:20:06;;;;;;;5.13;3.10;;;4.60;99.90;;;;;;4978551;28;20031;-77
2023/11/28 12:22:35;;;;;;;6.28;3.92;;;;;;;;;;4957974;28;20065;-79
2023/11/28 12:25:01;;;;;;;5.65;3.90;;;;;;;;;;4951781;28;20329;-80
2023/11/28 12:27:29;;;;;;;5.80;4.20;;;4.70;99.90;;;;;;4955373;28;20122;-80
2023/11/28 12:29:55;;;;;;;6.13;3.78;;;;;;;;;;4959083;28;20051;-79
2023/11/28 12:32:21;;;;;;;5.00;3.85;;;;;;;;;;4949531;28;20392;-80
2023/11/28 12:34:48;;;;;;;6.43;4.20;;;;;;;;;;4956262;28;21329;-78
2023/11/28 12:37:20;;;;;;;6.10;4.10;;;4.70;99.90;;;;;;4955519;28;20031;-79
2023/11/28 12:39:54;;;;;;;6.32;4.45;;;4.60;99.90;;;;;;4954267;28;20480;-79
2023/11/28 12:42:20;;;;;;;6.15;4.32;;;;;;;;;;4954991;28;20027;-79
2023/11/28 12:44:47;;;;;;;6.65;4.53;;;;;;;;;;4951989;28;20035;-79
2023/11/28 12:47:14;;;;;;;11.57;5.03;;;;;;;;;;4952346;28;20037;-79
2023/11/28 12:49:43;;;;;;;11.80;4.70;;;;;;;;;;4952555;28;20038;-80
2023/11/28 12:52:09;;;;;;;7.32;5.05;;;;;;;;;;4956103;28;20126;-79
2023/11/28 12:54:35;;;;;;;7.25;4.90;;;;;;;;;;4948368;28;20036;-80
2023/11/28 12:57:01;;;;;;;7.45;4.57;;;;;;;;;;4951870;28;20027;-78
2023/11/28 12:59:31;;;;;;;6.22;4.28;;;;;;;;;;4953074;28;20059;-79
2023/11/28 13:01:57;;;;;;;6.18;4.55;;;;;;;;;;4954010;28;20023;-79
2023/11/28 13:04:29;;;;;;;6.38;4.63;;;;;;;;;;4949829;28;20138;-79
2023/11/28 13:06:58;;;;;;;9.32;4.65;;;;;;;;;;4950640;28;20028;-79
2023/11/28 13:09:28;;;;;;;7.32;4.65;;;;;;;;;;4954366;28;20036;-79
2023/11/28 13:11:55;;;;;;;6.10;4.50;;;;;;;;;;4976068;28;20049;-79
2023/11/28 13:14:21;;;;;;;8.02;4.93;;;;;;;;;;4976638;28;20031;-81
2023/11/28 13:16:47;;;;;;;9.02;5.80;;;;;;;;;;4956986;28;20035;-80
2023/11/28 13:19:18;;;;;;;13.15;6.55;;;4.50;99.90;;;;;;4955808;28;20693;-79
2023/11/28 13:21:45;;;;;;;8.05;5.38;;;;;;;;;;4957771;28;20039;-79
2023/11/28 13:24:13;;;;;;;9.57;5.70;;;;;;;;;;4961236;28;20507;-79
2023/11/28 13:26:39;;;;;;;11.70;5.85;;;;;;;;;;4957171;28;20039;-79
2023/11/28 13:29:07;;;;;;;7.65;5.53;;;;;;;;;;4953867;28;20126;-78
2023/11/28 13:31:33;;;;;;;8.48;5.82;;;;;;;;;;4953694;28;20549;-79
2023/11/28 13:34:01;;;;;;;7.15;5.20;;;;;;;;;;4955642;28;20031;-79
2023/11/28 13:36:29;;;;;;;9.48;5.75;;;;;;;;;;4953820;28;20099;-78
2023/11/28 13:38:55;;;;;;;7.25;5.38;;;;;;;;;;4954194;28;20035;-79
2023/11/28 13:41:22;;;;;;;8.88;5.60;;;;;;;;;;4952183;28;20061;-79
2023/11/28 13:43:53;;;;;;;7.40;5.15;;;;;;;;;;4956809;28;20114;-80
2023/11/28 13:46:20;;;;;;;8.88;5.38;;;;;;;;;;4956361;28;20400;-78
2023/11/28 13:48:49;;;;;;;8.75;4.60;;;;;;;;;;4959292;28;20027;-80
2023/11/28 13:51:20;;;;;;;7.47;4.57;;;4.60;99.90;;;;;;4954860;28;20023;-80
2023/11/28 13:53:58;;;;;;;6.57;4.38;;;4.70;99.90;;;;;;4959906;28;20370;-80
2023/11/28 13:56:25;;;;;;;5.85;4.38;;;;;;;;;;4955976;28;20023;-80
2023/11/28 13:58:53;;;;;;;6.60;4.22;;;;;;;;;;4951168;28;20031;-79
2023/11/28 14:01:20;;;;;;;9.77;5.63;;;;;;;;;;4954972;28;20930;-79
2023/11/28 14:03:47;;;;;;;7.07;4.60;;;;;;;;;;4949725;28;20027;-79
2023/11/28 14:06:13;;;;;;;8.30;5.05;;;;;;;;;;4952976;29;20246;-80
2023/11/28 14:08:48;;;;;;;7.72;5.03;;;;;;;;;;4965278;28;20028;-80
2023/11/28 14:11:15;;;;;;;8.70;5.10;;;;;;;;;;4955625;28;20024;-79
2023/11/28 14:13:41;;;;;;;6.88;4.35;;;4.40;99.90;;;;;;4961218;28;20048;-79
2023/11/28 14:16:08;;;;;;;8.95;5.43;;;;;;;;;;4937623;29;20123;-79
2023/11/28 14:18:35;;;;;;;8.13;5.28;;;4.40;99.90;;;;;;4964429;28;20035;-79
2023/11/28 14:21:02;;;;;;;13.18;5.72;;;4.50;99.90;;;;;;4968630;28;20042;-77
2023/11/28 14:23:32;;;;;;;8.07;5.25;;;4.50;99.90;;;;;;4973100;28;20035;-81
2023/11/28 14:25:59;;;;;;;7.43;5.20;;;4.50;99.90;;;;;;4973451;28;20031;-79
2023/11/28 14:28:27;;;;;;;9.80;5.55;;;4.50;99.90;;;;;;4955450;29;20043;-79
2023/11/28 14:30:58;;;;;;;8.10;5.28;;;4.50;99.90;;;;;;4966846;28;20023;-80
2023/11/28 14:33:28;;;;;;;12.85;5.95;;;4.40;99.90;;;;;;4960469;28;20230;-80
2023/11/28 14:35:56;;;;;;;13.85;5.57;;;4.40;99.90;;;;;;4955053;28;20028;-81
2023/11/28 14:38:22;;;;;;;10.18;5.25;;;4.30;99.90;;;;;;4954147;28;20042;-80
2023/11/28 14:40:48;;;;;;;8.10;5.35;;;4.40;99.90;;;;;;4955520;28;20027;-79
2023/11/28 14:43:15;;;;;;;9.50;5.70;;;4.40;99.90;;;;;;4950842;28;20451;-79
2023/11/28 14:45:43;;;;;;;6.90;4.50;;;4.40;99.90;;;;;;4955167;28;20031;-78
2023/11/28 14:48:09;;;;;;;8.30;4.68;;;4.40;99.90;;;;;;4953701;29;20031;-80
2023/11/28 14:50:36;;;;;;;7.53;4.32;;;4.50;99.90;;;;;;4959210;28;20091;-80
2023/11/28 14:53:13;;;;;;;5.78;4.13;;;4.40;99.90;;;;;;4972551;28;20042;-80
2023/11/28 14:55:40;;;;;;;5.93;4.28;;;4.30;99.90;;;;;;4971370;29;20023;-80
2023/11/28 14:58:06;;;;;;;7.43;4.40;;;4.30;99.90;;;;;;4972837;28;20114;-79
2023/11/28 15:00:53;;;;;;;7.68;4.68;;;4.30;99.90;;;;;;4974734;28;20055;-79
2023/11/28 15:03:34;;;;;;;6.30;4.38;;;4.20;99.90;;;;;;4971240;28;20035;-80
2023/11/28 15:06:20;;;;;;;8.32;5.68;;;4.30;99.90;;;;;;4972159;28;20800;-79
2023/11/28 15:08:56;;;;;;;6.07;4.22;;;4.30;99.90;;;;;;4967411;28;20046;-79
2023/11/28 15:11:27;;;;;;;5.53;3.90;;;;;;;;;;4953058;28;20194;-79
2023/11/28 15:14:11;;;;;;;5.53;4.22;;;4.20;99.90;;;;;;4961076;28;20042;-80
2023/11/28 15:17:20;;;;;;;7.50;4.25;;;4.10;99.90;;;;;;4963960;28;20036;-80
2023/11/28 15:20:11;;;;;;;9.85;6.43;;;4.00;99.90;;;;;;4962549;28;20035;-81
2023/11/28 15:23:21;;;;;;;5.60;3.85;;;3.90;99.90;;;;;;4946338;28;20111;-80
2023/11/28 15:26:24;;;;;;;6.18;4.20;;;3.90;99.90;;;;;;4956845;28;20041;-80
2023/11/28 15:29:03;;;;;;;6.38;4.03;;;3.80;99.90;;;;;;4955737;28;20492;-81
2023/11/28 15:32:03;;;;;;;5.25;3.85;;;3.80;99.90;;;;;;4955538;28;20039;-80
2023/11/28 15:34:47;;;;;;;7.13;4.45;;;3.70;99.90;;;;;;4925700;28;20085;-81
2023/11/28 15:37:29;;;;;;;7.40;4.57;;;3.70;99.90;;;;;;4956325;28;20034;-80
2023/11/28 15:40:26;;;;;;;6.72;4.45;;;3.70;99.90;;;;;;4951578;28;20024;-80
2023/11/28 15:43:20;;;;;;;6.93;4.15;;;3.70;99.90;;;;;;4922077;29;20509;-80
2023/11/28 15:46:21;;;;;;;6.97;4.35;;;3.70;99.90;;;;;;4953301;28;20062;-79
2023/11/28 15:49:16;;;;;;;7.13;4.32;;;3.80;99.90;;;;;;4961857;28;20027;-80
2023/11/28 15:52:45;;;;;;;5.97;4.13;;;3.80;99.90;;;;;;4958897;28;20134;-80
2023/11/28 15:55:23;;;;;;;8.82;4.13;;;3.80;99.90;;;;;;4957252;28;20042;-80
2023/11/28 15:57:53;;;;;;;6.68;4.20;;;2.50;99.90;;;;;;4925546;28;20081;-79
2023/11/28 16:00:32;;;;;;;8.65;5.07;;;3.80;99.90;;;;;;4956415;28;20047;-79
2023/11/28 16:03:13;;;;;;;7.80;4.65;;;3.70;99.90;;;;;;4949721;28;20179;-80
2023/11/28 16:06:01;;;;;;;8.52;4.50;;;3.70;99.90;;;;;;4951711;28;20049;-80
2023/11/28 16:08:30;;;;;;;6.95;4.50;;;;;;;;;;4961765;28;20412;-81
2023/11/28 16:13:29;;;;;;;6.55;4.50;;;3.70;99.90;;;;;;4999214;23;20105;-82
2023/11/28 16:16:18;;;;;;;6.65;4.80;;;3.70;99.90;;;;;;4991554;28;20090;-81
2023/11/28 16:18:51;;;;;;;7.47;4.75;;;3.60;99.90;;;;;;4967430;28;20057;-82
2023/11/28 16:21:55;;;;;;;6.20;4.30;;;;;;;;;;4983773;28;20014;-81
2023/11/28 16:24:50;;;;;;;7.75;4.90;;;3.60;99.90;;;;;;4987278;28;20042;-80
2023/11/28 16:39:05;;;;;;;7.13;4.70;;;3.50;99.90;;;;;;4975158;29;20030;-83
2023/11/28 16:55:20;;;;;;;5.97;4.03;;;;;;;;;;5637279;23;20106;-81
2023/11/28 16:57:47;;;;;;;4.85;3.35;;;;;;;;;;4961637;28;20035;-81
2023/11/28 17:00:14;;;;;;;5.75;3.78;;;;;;;;;;4969193;28;20086;-80
2023/11/28 17:02:41;;;;;;;5.35;3.90;;;;;;;;;;4979492;28;20023;-81
2023/11/28 17:05:20;;;;;;;5.55;3.88;;;;;;;;;;4981077;28;20030;-82
2023/11/28 17:07:46;;;;;;;7.90;4.10;;;;;;;;;;4995712;28;20035;-81
2023/11/28 17:10:16;;;;;;;6.80;4.47;;;;;;;;;;4982147;28;20361;-81
2023/11/28 17:12:45;;;;;;;6.55;4.10;;;;;;;;;;4974329;28;20511;-81
2023/11/28 17:15:12;;;;;;;6.82;4.47;;;;;;;;;;4978309;28;20409;-82
2023/11/28 17:17:39;;;;;;;5.45;3.95;;;;;;;;;;4979224;28;20125;-81
2023/11/28 17:20:05;;;;;;;7.93;3.97;;;;;;;;;;4977738;28;20027;-81
2023/11/28 17:22:34;;;;;;;7.10;4.68;;;;;;;;;;4986672;28;20027;-82
2023/11/28 17:25:02;;;;;;;6.22;4.55;;;;;;;;;;4987136;28;20034;-81
2023/11/28 17:27:31;;;;;;;7.57;5.18;;;3.30;99.90;;;;;;4985314;28;20115;-83
2023/11/28 17:30:00;;;;;;;6.75;4.60;;;3.70;99.90;;;;;;5001495;28;20031;-83
2023/11/28 17:32:28;;;;;;;8.48;5.25;;;3.30;99.90;;;;;;5006557;28;20015;-82
2023/11/28 17:34:55;;;;;;;6.22;4.70;;;;;;;;;;4984141;28;20031;-80
2023/11/28 17:37:22;;;;;;;7.03;4.70;;;;;;;;;;4993013;28;20102;-81
2023/11/28 17:39:48;;;;;;;5.63;4.28;;;;;;;;;;4983949;28;20042;-82
2023/11/28 17:42:16;;;;;;;6.40;4.55;;;;;;;;;;5069745;23;20043;-83
2023/11/28 18:53:37;;;;;;;9.02;4.35;;;2.80;99.90;;;;;;5073849;23;20056;-80
2023/11/28 18:56:06;;;;;;;5.15;3.38;;;;;;;;;;5026447;23;20023;-85
2023/11/28 18:58:52;;;;;;;5.15;3.80;;;2.80;99.90;;;;;;4972152;28;20011;-88
2023/11/28 19:01:46;;;;;;;5.40;3.40;;;;;;;;;;4990984;28;20027;-87
2023/11/28 19:04:12;;;;;;;5.10;3.78;;;;;;;;;;5000655;28;20023;-88
2023/11/28 19:06:40;;;;;;;5.88;4.30;;;;;;;;;;4967342;28;20019;-83
2023/11/28 19:09:08;;;;;;;5.72;4.20;;;;;;;;;;4997879;28;20134;-85
2023/11/28 19:11:35;;;;;;;6.00;4.20;;;;;;;;;;5003187;28;20035;-88
2023/11/28 19:14:04;;;;;;;5.65;4.18;;;;;;;;;;4988372;28;20035;-88
2023/11/28 19:16:34;;;;;;;5.80;3.90;;;2.80;99.90;;;;;;4986737;28;20051;-87
2023/11/28 19:19:04;;;;;;;5.63;3.90;;;;;;;;;;4988108;28;20006;-86
2023/11/28 19:21:30;;;;;;;6.32;4.45;;;;;;;;;;4998756;28;20042;-87
2023/11/28 19:24:03;;;;;;;5.95;4.10;;;;;;;;;;4986009;28;20110;-85
2023/11/28 19:26:29;;;;;;;6.28;4.22;;;;;;;;;;4982754;28;20031;-85
2023/11/28 19:28:58;;;;;;;6.97;5.15;;;;;;;;;;4996482;28;20343;-86
2023/11/28 19:31:27;;;;;;;7.82;4.63;;;;;;;;;;4969408;28;20015;-89
2023/11/28 19:33:53;;;;;;;8.82;4.60;;;;;;;;;;4984530;28;20087;-87
2023/11/28 19:36:20;;;;;;;6.90;4.82;;;;;;;;;;5001642;28;20034;-90
2023/11/28 19:38:54;;;;;;;10.23;5.53;;;;;;;;;;4980312;28;20032;-86
2023/11/28 19:41:29;;;;;;;7.13;5.50;;;;;;;;;;4982603;28;20087;-89
2023/11/28 19:43:55;;;;;;;12.75;6.03;;;;;;;;;;4987111;28;20022;-86
2023/11/28 19:46:31;;;;;;;10.10;6.88;;;2.70;99.90;;;;;;4970886;28;20010;-87
2023/11/28 19:48:57;;;;;;;10.93;6.00;;;;;;;;;;4987380;28;20066;-85
2023/11/28 19:51:26;;;;;;;7.25;5.63;;;2.70;99.90;;;;;;5000416;28;20015;-87
2023/11/28 19:53:52;;;;;;;8.02;5.60;;;;;;;;;;4989036;28;20037;-85
2023/11/28 19:56:18;;;;;;;9.20;5.60;;;;;;;;;;4999933;28;20043;-88
2023/11/28 19:58:45;;;;;;;8.05;5.28;;;;;;;;;;4987756;28;20041;-88
2023/11/28 20:01:20;;;;;;;12.75;5.63;;;2.70;99.90;;;;;;4987849;28;20035;-88
2023/11/28 20:03:49;;;;;;;10.40;6.00;;;2.70;99.90;;;;;;4975719;28;20357;-86
2023/11/28 20:06:16;;;;;;;9.00;5.97;;;2.70;99.90;;;;;;4985822;28;20062;-88
2023/11/28 20:08:42;;;;;;;9.45;6.18;;;;;;;;;;4971560;28;20058;-88
2023/11/28 20:11:33;;;;;;;10.88;6.32;;;2.70;99.90;;;;;;5002878;28;20020;-89
2023/11/28 20:14:04;;;;;;;8.75;6.63;;;2.60;99.90;;;;;;5002616;28;20049;-89
2023/11/28 20:16:40;;;;;;;9.98;6.65;;;2.60;99.90;;;;;;4973446;28;20067;-86
2023/11/28 20:19:06;;;;;;;10.23;6.75;;;;;;;;;;4994384;28;20046;-84
2023/11/28 20:21:32;;;;;;;8.60;6.30;;;;;;;;;;5004788;28;20042;-83
2023/11/28 20:23:58;;;;;;;9.20;5.97;;;;;;;;;;5004864;28;20030;-85
2023/11/28 20:26:25;;;;;;;10.63;7.03;;;;;;;;;;4987683;28;20058;-84
2023/11/28 20:28:54;;;;;;;9.85;6.72;;;;;;;;;;5009381;28;20053;-84
2023/11/28 20:31:20;;;;;;;8.68;6.50;;;;;;;;;;4989184;28;20037;-89
2023/11/28 20:33:49;;;;;;;10.05;6.22;;;;;;;;;;4993284;28;20022;-85
2023/11/28 20:36:28;;;;;;;9.95;6.15;;;2.30;99.90;;;;;;4994935;28;20026;-87
2023/11/28 20:39:05;;;;;;;20.10;7.35;;;2.20;99.90;;;;;;5013152;28;20094;-85
2023/11/28 20:42:14;;;;;;;10.63;7.15;;;2.20;99.90;;;;;;4995560;28;20027;-87
2023/11/28 20:45:00;;;;;;;8.60;5.85;;;2.20;99.90;;;;;;4960506;28;20030;-88
2023/11/28 20:48:08;;;;;;;12.93;6.68;;;2.10;99.90;;;;;;4997990;28;20043;-88
2023/11/28 20:51:34;;;;;;;10.13;6.93;;;2.10;99.90;;;;;;4930156;28;20040;-86
2023/11/28 20:54:26;;;;;;;13.65;7.63;;;2.10;99.90;;;;;;4934493;29;20051;-87
2023/11/28 20:56:54;;;;;;;8.52;6.03;;;;;;;;;;4917693;28;20024;-88
2023/11/28 20:59:20;;;;;;;10.60;6.45;;;;;;;;;;5014665;28;20013;-87
2023/11/28 23:12:40;;;;;;;13.95;8.00;;;1.00;99.90;;;;;;5021552;28;20077;-84
2023/11/28 23:15:08;;;;;;;14.75;8.60;;;;;;;;;;5014705;28;20105;-85
2023/11/28 23:17:34;;;;;;;12.93;7.68;;;;;;;;;;4981320;28;20039;-84
2023/11/28 23:20:00;;;;;;;15.32;8.52;;;;;;;;;;5004984;28;20022;-83
2023/11/28 23:22:27;;;;;;;16.02;8.98;;;;;;;;;;4988606;28;20041;-84
2023/11/28 23:25:09;;;;;;;15.02;8.70;;;0.90;99.90;;;;;;5003931;28;20038;-85
2023/11/28 23:27:38;;;;;;;14.27;8.27;;;1.00;99.90;;;;;;4990225;28;20038;-85
2023/11/28 23:30:10;;;;;;;14.95;8.30;;;2.20;99.90;;;;;;4992521;28;20022;-88
2023/11/28 23:32:36;;;;;;;15.30;8.35;;;;;;;;;;4988867;28;20046;-86
2023/11/28 23:35:05;;;;;;;15.82;8.13;;;0.90;99.90;;;;;;4987304;28;20037;-84
2023/11/28 23:37:32;;;;;;;15.00;8.23;;;;;;;;;;5002624;28;20046;-84
2023/11/28 23:39:58;;;;;;;15.57;9.23;;;;;;;;;;4990643;28;20041;-83
2023/11/28 23:42:24;;;;;;;15.43;8.63;;;;;;;;;;5008660;28;20034;-85
2023/11/28 23:44:50;;;;;;;13.45;8.00;;;;;;;;;;4989119;28;20121;-86
2023/11/28 23:47:16;;;;;;;16.08;8.70;;;;;;;;;;4987173;28;20093;-86
2023/11/28 23:50:35;;;;;;;;;;;;;;;;;;;;;
2023/11/28 23:53:01;;;;;;;13.85;7.75;;;;;;;;;;4988199;28;20067;-85
2023/11/28 23:55:27;;;;;;;15.15;8.85;;;;;;;;;;5004211;28;20051;-84
2023/11/28 23:57:55;;;;;;;14.32;8.75;;;;;;;;;;4987692;28;20026;-84
